sensor_id;sensor_type;location;lat;lon;timestamp;temperature;humidity
7384;DHT22;3733;47.994;8.820;2024-02-26T00:00:28;3.70;88.10
7384;DHT22;3733;47.994;8.820;2024-02-26T00:02:54;3.70;87.30
7384;DHT22;3733;47.994;8.820;2024-02-26T00:05:20;3.70;86.20
7384;DHT22;3733;47.994;8.820;2024-02-26T00:07:45;3.70;85.50
7384;DHT22;3733;47.994;8.820;2024-02-26T00:10:13;3.70;85.10
7384;DHT22;3733;47.994;8.820;2024-02-26T00:12:38;3.70;85.60
7384;DHT22;3733;47.994;8.820;2024-02-26T00:15:06;3.70;85.80
7384;DHT22;3733;47.994;8.820;2024-02-26T00:17:31;3.70;86.90
7384;DHT22;3733;47.994;8.820;2024-02-26T00:19:57;3.80;87.20
7384;DHT22;3733;47.994;8.820;2024-02-26T00:22:22;3.80;87.90
7384;DHT22;3733;47.994;8.820;2024-02-26T00:24:48;3.80;89.30
7384;DHT22;3733;47.994;8.820;2024-02-26T00:27:14;3.80;90.30
7384;DHT22;3733;47.994;8.820;2024-02-26T00:29:39;3.80;90.10
7384;DHT22;3733;47.994;8.820;2024-02-26T00:32:05;3.80;89.60
7384;DHT22;3733;47.994;8.820;2024-02-26T00:34:31;3.80;89.70
7384;DHT22;3733;47.994;8.820;2024-02-26T00:36:57;3.70;90.20
7384;DHT22;3733;47.994;8.820;2024-02-26T00:39:22;3.80;91.10
7384;DHT22;3733;47.994;8.820;2024-02-26T00:41:48;3.70;91.10
7384;DHT22;3733;47.994;8.820;2024-02-26T00:44:13;3.60;91.30
7384;DHT22;3733;47.994;8.820;2024-02-26T00:46:39;3.70;91.80
7384;DHT22;3733;47.994;8.820;2024-02-26T00:49:05;3.60;92.10
7384;DHT22;3733;47.994;8.820;2024-02-26T00:51:31;3.60;92.40
7384;DHT22;3733;47.994;8.820;2024-02-26T00:53:56;3.60;92.30
7384;DHT22;3733;47.994;8.820;2024-02-26T00:56:22;3.70;93.10
7384;DHT22;3733;47.994;8.820;2024-02-26T00:58:48;3.60;93.20
7384;DHT22;3733;47.994;8.820;2024-02-26T01:01:13;3.70;93.30
7384;DHT22;3733;47.994;8.820;2024-02-26T01:03:39;3.70;93.20
7384;DHT22;3733;47.994;8.820;2024-02-26T01:06:04;3.70;93.40
7384;DHT22;3733;47.994;8.820;2024-02-26T01:08:30;3.70;93.40
7384;DHT22;3733;47.994;8.820;2024-02-26T01:10:57;3.70;93.40
7384;DHT22;3733;47.994;8.820;2024-02-26T01:13:22;3.70;93.00
7384;DHT22;3733;47.994;8.820;2024-02-26T01:15:48;3.70;93.10
7384;DHT22;3733;47.994;8.820;2024-02-26T01:18:14;3.70;93.30
7384;DHT22;3733;47.994;8.820;2024-02-26T01:20:39;3.70;92.80
7384;DHT22;3733;47.994;8.820;2024-02-26T01:23:05;3.80;92.50
7384;DHT22;3733;47.994;8.820;2024-02-26T01:25:31;3.70;92.20
7384;DHT22;3733;47.994;8.820;2024-02-26T01:27:56;3.80;92.50
7384;DHT22;3733;47.994;8.820;2024-02-26T01:30:22;3.80;92.50
7384;DHT22;3733;47.994;8.820;2024-02-26T01:32:48;3.80;91.80
7384;DHT22;3733;47.994;8.820;2024-02-26T01:35:13;3.80;91.70
7384;DHT22;3733;47.994;8.820;2024-02-26T01:37:39;3.80;92.10
7384;DHT22;3733;47.994;8.820;2024-02-26T01:40:06;3.80;92.10
7384;DHT22;3733;47.994;8.820;2024-02-26T01:42:32;3.80;91.90
7384;DHT22;3733;47.994;8.820;2024-02-26T01:44:59;3.80;92.50
7384;DHT22;3733;47.994;8.820;2024-02-26T01:47:25;3.90;92.50
7384;DHT22;3733;47.994;8.820;2024-02-26T01:49:52;3.90;93.30
7384;DHT22;3733;47.994;8.820;2024-02-26T01:52:18;3.90;93.20
7384;DHT22;3733;47.994;8.820;2024-02-26T01:54:45;3.80;91.80
7384;DHT22;3733;47.994;8.820;2024-02-26T01:57:12;3.90;92.40
7384;DHT22;3733;47.994;8.820;2024-02-26T01:59:39;3.90;93.40
7384;DHT22;3733;47.994;8.820;2024-02-26T02:02:07;3.90;93.80
7384;DHT22;3733;47.994;8.820;2024-02-26T02:04:33;3.90;93.60
7384;DHT22;3733;47.994;8.820;2024-02-26T02:07:00;3.90;93.90
7384;DHT22;3733;47.994;8.820;2024-02-26T02:09:27;4.00;95.70
7384;DHT22;3733;47.994;8.820;2024-02-26T02:11:54;3.90;95.40
7384;DHT22;3733;47.994;8.820;2024-02-26T02:14:19;3.90;95.60
7384;DHT22;3733;47.994;8.820;2024-02-26T02:16:46;3.90;96.70
7384;DHT22;3733;47.994;8.820;2024-02-26T02:19:12;3.90;97.30
7384;DHT22;3733;47.994;8.820;2024-02-26T02:21:38;3.80;98.30
7384;DHT22;3733;47.994;8.820;2024-02-26T02:24:04;3.80;99.80
7384;DHT22;3733;47.994;8.820;2024-02-26T02:26:29;3.80;99.70
7384;DHT22;3733;47.994;8.820;2024-02-26T02:28:55;3.80;99.90
7384;DHT22;3733;47.994;8.820;2024-02-26T02:31:21;3.80;99.70
7384;DHT22;3733;47.994;8.820;2024-02-26T02:33:46;3.80;99.80
7384;DHT22;3733;47.994;8.820;2024-02-26T02:36:12;3.80;99.90
7384;DHT22;3733;47.994;8.820;2024-02-26T02:38:38;3.80;99.90
7384;DHT22;3733;47.994;8.820;2024-02-26T02:41:04;3.80;99.90
7384;DHT22;3733;47.994;8.820;2024-02-26T02:43:30;3.80;99.90
7384;DHT22;3733;47.994;8.820;2024-02-26T02:45:56;3.80;99.20
7384;DHT22;3733;47.994;8.820;2024-02-26T02:48:21;3.90;98.20
7384;DHT22;3733;47.994;8.820;2024-02-26T02:50:47;3.90;97.60
7384;DHT22;3733;47.994;8.820;2024-02-26T02:53:13;3.90;97.40
7384;DHT22;3733;47.994;8.820;2024-02-26T02:55:38;4.00;97.00
7384;DHT22;3733;47.994;8.820;2024-02-26T02:58:04;4.00;97.70
7384;DHT22;3733;47.994;8.820;2024-02-26T03:00:30;4.00;97.70
7384;DHT22;3733;47.994;8.820;2024-02-26T03:02:55;4.00;97.70
7384;DHT22;3733;47.994;8.820;2024-02-26T03:05:21;4.00;98.20
7384;DHT22;3733;47.994;8.820;2024-02-26T03:07:47;4.10;98.00
7384;DHT22;3733;47.994;8.820;2024-02-26T03:10:13;4.00;97.30
7384;DHT22;3733;47.994;8.820;2024-02-26T03:12:39;4.00;96.60
7384;DHT22;3733;47.994;8.820;2024-02-26T03:15:04;4.00;95.00
7384;DHT22;3733;47.994;8.820;2024-02-26T03:17:30;4.00;94.80
7384;DHT22;3733;47.994;8.820;2024-02-26T03:19:56;4.10;94.20
7384;DHT22;3733;47.994;8.820;2024-02-26T03:22:21;4.00;94.90
7384;DHT22;3733;47.994;8.820;2024-02-26T03:24:48;4.00;94.70
7384;DHT22;3733;47.994;8.820;2024-02-26T03:27:13;4.00;94.50
7384;DHT22;3733;47.994;8.820;2024-02-26T03:29:40;4.10;94.00
7384;DHT22;3733;47.994;8.820;2024-02-26T03:32:06;4.10;92.70
7384;DHT22;3733;47.994;8.820;2024-02-26T03:34:32;4.10;91.40
7384;DHT22;3733;47.994;8.820;2024-02-26T03:37:01;4.20;92.40
7384;DHT22;3733;47.994;8.820;2024-02-26T03:39:27;4.20;92.40
7384;DHT22;3733;47.994;8.820;2024-02-26T03:41:52;4.20;93.70
7384;DHT22;3733;47.994;8.820;2024-02-26T03:44:18;4.20;94.30
7384;DHT22;3733;47.994;8.820;2024-02-26T03:46:43;4.20;94.80
7384;DHT22;3733;47.994;8.820;2024-02-26T03:49:09;4.20;95.70
7384;DHT22;3733;47.994;8.820;2024-02-26T03:51:35;4.20;98.40
7384;DHT22;3733;47.994;8.820;2024-02-26T03:54:01;4.10;99.90
7384;DHT22;3733;47.994;8.820;2024-02-26T03:56:27;4.10;99.90
7384;DHT22;3733;47.994;8.820;2024-02-26T03:58:53;4.10;99.90
7384;DHT22;3733;47.994;8.820;2024-02-26T04:01:19;4.10;99.90
7384;DHT22;3733;47.994;8.820;2024-02-26T04:03:44;4.10;99.90
7384;DHT22;3733;47.994;8.820;2024-02-26T04:06:10;4.10;98.60
7384;DHT22;3733;47.994;8.820;2024-02-26T04:08:37;4.00;99.20
7384;DHT22;3733;47.994;8.820;2024-02-26T04:11:03;4.00;99.30
7384;DHT22;3733;47.994;8.820;2024-02-26T04:13:33;4.00;99.40
7384;DHT22;3733;47.994;8.820;2024-02-26T04:15:59;4.10;98.40
7384;DHT22;3733;47.994;8.820;2024-02-26T04:18:27;4.10;98.00
7384;DHT22;3733;47.994;8.820;2024-02-26T04:20:52;4.10;98.50
7384;DHT22;3733;47.994;8.820;2024-02-26T04:23:18;4.10;98.20
7384;DHT22;3733;47.994;8.820;2024-02-26T04:25:44;4.10;98.70
7384;DHT22;3733;47.994;8.820;2024-02-26T04:28:10;4.10;99.00
7384;DHT22;3733;47.994;8.820;2024-02-26T04:30:37;4.10;98.70
7384;DHT22;3733;47.994;8.820;2024-02-26T04:33:02;4.10;98.50
7384;DHT22;3733;47.994;8.820;2024-02-26T04:35:28;4.10;98.50
7384;DHT22;3733;47.994;8.820;2024-02-26T04:37:54;4.10;97.50
7384;DHT22;3733;47.994;8.820;2024-02-26T04:40:19;4.10;97.50
7384;DHT22;3733;47.994;8.820;2024-02-26T04:42:45;4.10;96.70
7384;DHT22;3733;47.994;8.820;2024-02-26T04:45:10;4.10;96.20
7384;DHT22;3733;47.994;8.820;2024-02-26T04:47:36;4.10;95.10
7384;DHT22;3733;47.994;8.820;2024-02-26T04:50:02;4.10;94.00
7384;DHT22;3733;47.994;8.820;2024-02-26T04:52:27;4.10;94.40
7384;DHT22;3733;47.994;8.820;2024-02-26T04:54:53;4.10;93.90
7384;DHT22;3733;47.994;8.820;2024-02-26T04:57:20;4.20;93.80
7384;DHT22;3733;47.994;8.820;2024-02-26T04:59:46;4.20;95.00
7384;DHT22;3733;47.994;8.820;2024-02-26T05:02:12;4.20;95.80
7384;DHT22;3733;47.994;8.820;2024-02-26T05:04:38;4.20;95.70
7384;DHT22;3733;47.994;8.820;2024-02-26T05:07:03;4.30;95.70
7384;DHT22;3733;47.994;8.820;2024-02-26T05:09:29;4.30;96.20
7384;DHT22;3733;47.994;8.820;2024-02-26T05:11:55;4.30;96.20
7384;DHT22;3733;47.994;8.820;2024-02-26T05:14:20;4.30;95.80
7384;DHT22;3733;47.994;8.820;2024-02-26T05:16:47;4.30;94.40
7384;DHT22;3733;47.994;8.820;2024-02-26T05:19:13;4.30;93.30
7384;DHT22;3733;47.994;8.820;2024-02-26T05:21:38;4.40;93.10
7384;DHT22;3733;47.994;8.820;2024-02-26T05:24:05;4.40;92.80
7384;DHT22;3733;47.994;8.820;2024-02-26T05:26:31;4.40;92.60
7384;DHT22;3733;47.994;8.820;2024-02-26T05:28:57;4.40;92.30
7384;DHT22;3733;47.994;8.820;2024-02-26T05:31:26;4.40;92.10
7384;DHT22;3733;47.994;8.820;2024-02-26T05:33:52;4.40;91.80
7384;DHT22;3733;47.994;8.820;2024-02-26T05:36:23;4.40;91.10
7384;DHT22;3733;47.994;8.820;2024-02-26T05:38:49;4.40;92.10
7384;DHT22;3733;47.994;8.820;2024-02-26T05:41:15;4.30;92.40
7384;DHT22;3733;47.994;8.820;2024-02-26T05:43:42;4.30;92.80
7384;DHT22;3733;47.994;8.820;2024-02-26T05:46:07;4.30;93.40
7384;DHT22;3733;47.994;8.820;2024-02-26T05:48:33;4.30;94.10
7384;DHT22;3733;47.994;8.820;2024-02-26T05:50:59;4.30;93.90
7384;DHT22;3733;47.994;8.820;2024-02-26T05:53:25;4.40;93.20
7384;DHT22;3733;47.994;8.820;2024-02-26T05:55:50;4.30;92.00
7384;DHT22;3733;47.994;8.820;2024-02-26T05:58:16;4.40;92.60
7384;DHT22;3733;47.994;8.820;2024-02-26T06:00:42;4.40;93.00
7384;DHT22;3733;47.994;8.820;2024-02-26T06:03:07;4.40;94.10
7384;DHT22;3733;47.994;8.820;2024-02-26T06:05:33;4.40;94.20
7384;DHT22;3733;47.994;8.820;2024-02-26T06:07:59;4.40;94.40
7384;DHT22;3733;47.994;8.820;2024-02-26T06:10:24;4.40;94.90
7384;DHT22;3733;47.994;8.820;2024-02-26T06:12:50;4.40;96.10
7384;DHT22;3733;47.994;8.820;2024-02-26T06:15:16;4.40;96.60
7384;DHT22;3733;47.994;8.820;2024-02-26T06:17:41;4.40;96.90
7384;DHT22;3733;47.994;8.820;2024-02-26T06:20:07;4.30;97.00
7384;DHT22;3733;47.994;8.820;2024-02-26T06:22:37;4.30;97.70
7384;DHT22;3733;47.994;8.820;2024-02-26T06:25:03;4.30;98.40
7384;DHT22;3733;47.994;8.820;2024-02-26T06:27:28;4.30;98.80
7384;DHT22;3733;47.994;8.820;2024-02-26T06:29:54;4.30;99.30
7384;DHT22;3733;47.994;8.820;2024-02-26T06:32:19;4.30;99.50
7384;DHT22;3733;47.994;8.820;2024-02-26T06:34:45;4.30;99.90
7384;DHT22;3733;47.994;8.820;2024-02-26T06:37:11;4.30;99.90
7384;DHT22;3733;47.994;8.820;2024-02-26T06:39:36;4.30;99.90
7384;DHT22;3733;47.994;8.820;2024-02-26T06:42:03;4.30;99.90
7384;DHT22;3733;47.994;8.820;2024-02-26T06:44:29;4.40;99.90
7384;DHT22;3733;47.994;8.820;2024-02-26T06:47:01;4.40;99.90
7384;DHT22;3733;47.994;8.820;2024-02-26T06:49:27;4.40;99.90
7384;DHT22;3733;47.994;8.820;2024-02-26T06:51:53;4.40;99.90
7384;DHT22;3733;47.994;8.820;2024-02-26T06:54:19;4.40;99.90
7384;DHT22;3733;47.994;8.820;2024-02-26T06:56:45;4.40;99.90
7384;DHT22;3733;47.994;8.820;2024-02-26T06:59:10;4.40;99.90
7384;DHT22;3733;47.994;8.820;2024-02-26T07:01:36;4.40;99.90
7384;DHT22;3733;47.994;8.820;2024-02-26T07:04:01;4.50;99.90
7384;DHT22;3733;47.994;8.820;2024-02-26T07:06:27;4.50;99.90
7384;DHT22;3733;47.994;8.820;2024-02-26T07:08:53;4.50;99.90
7384;DHT22;3733;47.994;8.820;2024-02-26T07:11:19;4.50;99.90
7384;DHT22;3733;47.994;8.820;2024-02-26T07:13:46;4.50;99.90
7384;DHT22;3733;47.994;8.820;2024-02-26T07:16:11;4.50;99.90
7384;DHT22;3733;47.994;8.820;2024-02-26T07:18:38;4.50;99.90
7384;DHT22;3733;47.994;8.820;2024-02-26T07:21:04;4.50;99.90
7384;DHT22;3733;47.994;8.820;2024-02-26T07:23:30;4.50;99.90
7384;DHT22;3733;47.994;8.820;2024-02-26T07:25:56;4.50;99.90
7384;DHT22;3733;47.994;8.820;2024-02-26T07:28:21;4.50;99.90
7384;DHT22;3733;47.994;8.820;2024-02-26T07:30:47;4.50;99.90
7384;DHT22;3733;47.994;8.820;2024-02-26T07:33:13;4.50;99.90
7384;DHT22;3733;47.994;8.820;2024-02-26T07:35:38;4.50;99.90
7384;DHT22;3733;47.994;8.820;2024-02-26T07:38:04;4.50;99.90
7384;DHT22;3733;47.994;8.820;2024-02-26T07:40:30;4.50;99.90
7384;DHT22;3733;47.994;8.820;2024-02-26T07:42:56;4.50;99.90
7384;DHT22;3733;47.994;8.820;2024-02-26T07:45:22;4.60;99.90
7384;DHT22;3733;47.994;8.820;2024-02-26T07:47:48;4.60;99.90
7384;DHT22;3733;47.994;8.820;2024-02-26T07:50:13;4.60;99.90
7384;DHT22;3733;47.994;8.820;2024-02-26T07:52:39;4.60;99.90
7384;DHT22;3733;47.994;8.820;2024-02-26T07:55:06;4.60;99.90
7384;DHT22;3733;47.994;8.820;2024-02-26T07:57:35;4.70;99.90
7384;DHT22;3733;47.994;8.820;2024-02-26T08:00:01;4.70;99.90
7384;DHT22;3733;47.994;8.820;2024-02-26T08:02:28;4.70;99.90
7384;DHT22;3733;47.994;8.820;2024-02-26T08:04:53;4.70;99.90
7384;DHT22;3733;47.994;8.820;2024-02-26T08:07:19;4.80;99.90
7384;DHT22;3733;47.994;8.820;2024-02-26T08:09:46;4.80;99.90
7384;DHT22;3733;47.994;8.820;2024-02-26T08:12:12;4.90;99.90
7384;DHT22;3733;47.994;8.820;2024-02-26T08:14:38;4.90;99.90
7384;DHT22;3733;47.994;8.820;2024-02-26T08:17:03;5.00;99.90
7384;DHT22;3733;47.994;8.820;2024-02-26T08:19:29;5.00;99.90
7384;DHT22;3733;47.994;8.820;2024-02-26T08:21:54;5.10;99.90
7384;DHT22;3733;47.994;8.820;2024-02-26T08:24:20;5.10;99.90
7384;DHT22;3733;47.994;8.820;2024-02-26T08:26:46;5.20;99.90
7384;DHT22;3733;47.994;8.820;2024-02-26T08:29:11;5.20;99.90
7384;DHT22;3733;47.994;8.820;2024-02-26T08:31:37;5.30;99.90
7384;DHT22;3733;47.994;8.820;2024-02-26T08:34:05;5.30;99.90
7384;DHT22;3733;47.994;8.820;2024-02-26T08:36:33;5.40;99.90
7384;DHT22;3733;47.994;8.820;2024-02-26T08:38:59;5.40;99.90
7384;DHT22;3733;47.994;8.820;2024-02-26T08:41:25;5.50;99.90
7384;DHT22;3733;47.994;8.820;2024-02-26T08:43:51;5.50;99.90
7384;DHT22;3733;47.994;8.820;2024-02-26T08:46:17;5.60;99.90
7384;DHT22;3733;47.994;8.820;2024-02-26T08:48:42;5.60;99.90
7384;DHT22;3733;47.994;8.820;2024-02-26T08:51:09;5.80;99.90
7384;DHT22;3733;47.994;8.820;2024-02-26T08:53:35;5.90;99.90
7384;DHT22;3733;47.994;8.820;2024-02-26T08:56:01;6.00;97.70
7384;DHT22;3733;47.994;8.820;2024-02-26T08:58:30;6.10;94.30
7384;DHT22;3733;47.994;8.820;2024-02-26T09:00:55;6.20;91.70
7384;DHT22;3733;47.994;8.820;2024-02-26T09:03:22;6.20;91.40
7384;DHT22;3733;47.994;8.820;2024-02-26T09:05:47;6.30;90.50
7384;DHT22;3733;47.994;8.820;2024-02-26T09:08:13;6.40;89.20
7384;DHT22;3733;47.994;8.820;2024-02-26T09:10:39;6.60;87.70
7384;DHT22;3733;47.994;8.820;2024-02-26T09:13:05;6.70;86.50
7384;DHT22;3733;47.994;8.820;2024-02-26T09:15:30;6.90;85.70
7384;DHT22;3733;47.994;8.820;2024-02-26T09:17:56;7.10;87.50
7384;DHT22;3733;47.994;8.820;2024-02-26T09:20:22;7.20;88.90
7384;DHT22;3733;47.994;8.820;2024-02-26T09:22:49;7.40;85.90
7384;DHT22;3733;47.994;8.820;2024-02-26T09:25:15;7.60;85.90
7384;DHT22;3733;47.994;8.820;2024-02-26T09:27:44;7.80;86.70
7384;DHT22;3733;47.994;8.820;2024-02-26T09:30:13;8.00;85.60
7384;DHT22;3733;47.994;8.820;2024-02-26T09:32:39;8.30;83.40
7384;DHT22;3733;47.994;8.820;2024-02-26T09:35:06;8.60;80.20
7384;DHT22;3733;47.994;8.820;2024-02-26T09:37:32;8.80;77.50
7384;DHT22;3733;47.994;8.820;2024-02-26T09:39:58;9.00;73.70
7384;DHT22;3733;47.994;8.820;2024-02-26T09:42:27;9.10;71.00
7384;DHT22;3733;47.994;8.820;2024-02-26T09:44:58;9.30;70.50
7384;DHT22;3733;47.994;8.820;2024-02-26T09:47:28;9.30;67.60
7384;DHT22;3733;47.994;8.820;2024-02-26T09:49:56;9.40;67.00
7384;DHT22;3733;47.994;8.820;2024-02-26T09:52:24;9.40;66.00
7384;DHT22;3733;47.994;8.820;2024-02-26T09:54:51;9.50;64.90
7384;DHT22;3733;47.994;8.820;2024-02-26T09:57:16;9.50;64.80
7384;DHT22;3733;47.994;8.820;2024-02-26T09:59:43;9.50;63.40
7384;DHT22;3733;47.994;8.820;2024-02-26T10:02:12;9.50;63.10
7384;DHT22;3733;47.994;8.820;2024-02-26T10:04:40;9.60;62.20
7384;DHT22;3733;47.994;8.820;2024-02-26T10:07:11;9.70;62.50
7384;DHT22;3733;47.994;8.820;2024-02-26T10:09:37;9.80;62.20
7384;DHT22;3733;47.994;8.820;2024-02-26T10:12:04;9.90;61.90
7384;DHT22;3733;47.994;8.820;2024-02-26T10:14:30;9.90;61.50
7384;DHT22;3733;47.994;8.820;2024-02-26T10:16:56;10.00;60.40
7384;DHT22;3733;47.994;8.820;2024-02-26T10:19:26;10.10;60.00
7384;DHT22;3733;47.994;8.820;2024-02-26T10:22:00;10.10;59.70
7384;DHT22;3733;47.994;8.820;2024-02-26T10:24:27;10.20;59.80
7384;DHT22;3733;47.994;8.820;2024-02-26T10:26:54;10.20;59.90
7384;DHT22;3733;47.994;8.820;2024-02-26T10:29:20;10.30;58.80
7384;DHT22;3733;47.994;8.820;2024-02-26T10:31:46;10.30;58.40
7384;DHT22;3733;47.994;8.820;2024-02-26T10:34:12;10.40;58.10
7384;DHT22;3733;47.994;8.820;2024-02-26T10:36:38;10.30;57.60
7384;DHT22;3733;47.994;8.820;2024-02-26T10:39:07;10.40;57.50
7384;DHT22;3733;47.994;8.820;2024-02-26T10:41:33;10.40;56.80
7384;DHT22;3733;47.994;8.820;2024-02-26T10:43:59;10.40;56.10
7384;DHT22;3733;47.994;8.820;2024-02-26T10:46:25;10.50;56.10
7384;DHT22;3733;47.994;8.820;2024-02-26T10:48:52;10.50;55.60
7384;DHT22;3733;47.994;8.820;2024-02-26T10:51:22;10.60;55.40
7384;DHT22;3733;47.994;8.820;2024-02-26T10:53:51;10.70;55.00
7384;DHT22;3733;47.994;8.820;2024-02-26T10:56:24;10.70;55.20
7384;DHT22;3733;47.994;8.820;2024-02-26T10:58:51;10.70;54.60
7384;DHT22;3733;47.994;8.820;2024-02-26T11:01:18;10.80;54.40
7384;DHT22;3733;47.994;8.820;2024-02-26T11:03:44;10.80;53.90
7384;DHT22;3733;47.994;8.820;2024-02-26T11:06:12;10.70;53.50
7384;DHT22;3733;47.994;8.820;2024-02-26T11:08:38;10.70;53.20
7384;DHT22;3733;47.994;8.820;2024-02-26T11:11:05;10.70;53.50
7384;DHT22;3733;47.994;8.820;2024-02-26T11:13:31;10.70;53.30
7384;DHT22;3733;47.994;8.820;2024-02-26T11:15:57;10.70;53.10
7384;DHT22;3733;47.994;8.820;2024-02-26T11:18:26;10.80;53.10
7384;DHT22;3733;47.994;8.820;2024-02-26T11:20:52;10.80;53.20
7384;DHT22;3733;47.994;8.820;2024-02-26T11:23:22;10.90;53.20
7384;DHT22;3733;47.994;8.820;2024-02-26T11:25:48;10.90;52.70
7384;DHT22;3733;47.994;8.820;2024-02-26T11:28:17;11.00;52.80
7384;DHT22;3733;47.994;8.820;2024-02-26T11:30:47;11.10;52.70
7384;DHT22;3733;47.994;8.820;2024-02-26T11:33:14;11.20;52.50
7384;DHT22;3733;47.994;8.820;2024-02-26T11:35:40;11.20;52.50
7384;DHT22;3733;47.994;8.820;2024-02-26T11:38:06;11.20;52.40
7384;DHT22;3733;47.994;8.820;2024-02-26T11:40:33;11.30;51.70
7384;DHT22;3733;47.994;8.820;2024-02-26T11:43:04;11.20;50.40
7384;DHT22;3733;47.994;8.820;2024-02-26T11:48:25;11.10;51.00
7384;DHT22;3733;47.994;8.820;2024-02-26T11:50:51;11.10;51.20
7384;DHT22;3733;47.994;8.820;2024-02-26T11:53:30;11.20;51.10
7384;DHT22;3733;47.994;8.820;2024-02-26T11:58:57;11.30;50.30
7384;DHT22;3733;47.994;8.820;2024-02-26T12:04:01;11.30;48.80
7384;DHT22;3733;47.994;8.820;2024-02-26T12:06:27;11.20;47.50
7384;DHT22;3733;47.994;8.820;2024-02-26T12:08:54;11.20;46.80
7384;DHT22;3733;47.994;8.820;2024-02-26T12:11:20;11.10;46.70
7384;DHT22;3733;47.994;8.820;2024-02-26T12:13:49;11.10;46.90
7384;DHT22;3733;47.994;8.820;2024-02-26T12:16:38;11.00;46.80
7384;DHT22;3733;47.994;8.820;2024-02-26T12:19:08;11.00;46.80
7384;DHT22;3733;47.994;8.820;2024-02-26T12:21:37;10.90;46.80
7384;DHT22;3733;47.994;8.820;2024-02-26T12:24:13;10.90;46.80
7384;DHT22;3733;47.994;8.820;2024-02-26T12:26:40;10.80;47.20
7384;DHT22;3733;47.994;8.820;2024-02-26T12:29:06;10.80;47.30
7384;DHT22;3733;47.994;8.820;2024-02-26T12:31:32;10.80;47.70
7384;DHT22;3733;47.994;8.820;2024-02-26T12:34:00;10.80;47.70
7384;DHT22;3733;47.994;8.820;2024-02-26T12:36:25;10.80;47.90
7384;DHT22;3733;47.994;8.820;2024-02-26T12:38:52;10.90;48.30
7384;DHT22;3733;47.994;8.820;2024-02-26T12:41:17;10.80;48.20
7384;DHT22;3733;47.994;8.820;2024-02-26T12:43:43;10.90;48.20
7384;DHT22;3733;47.994;8.820;2024-02-26T12:46:10;10.90;48.50
7384;DHT22;3733;47.994;8.820;2024-02-26T12:48:36;10.90;48.50
7384;DHT22;3733;47.994;8.820;2024-02-26T12:51:02;11.00;48.40
7384;DHT22;3733;47.994;8.820;2024-02-26T12:53:27;11.10;48.50
7384;DHT22;3733;47.994;8.820;2024-02-26T12:55:54;11.10;48.60
7384;DHT22;3733;47.994;8.820;2024-02-26T12:58:21;11.20;48.20
7384;DHT22;3733;47.994;8.820;2024-02-26T13:00:51;11.20;48.10
7384;DHT22;3733;47.994;8.820;2024-02-26T13:03:17;11.30;48.00
7384;DHT22;3733;47.994;8.820;2024-02-26T13:05:43;11.30;47.70
7384;DHT22;3733;47.994;8.820;2024-02-26T13:08:10;11.40;48.00
7384;DHT22;3733;47.994;8.820;2024-02-26T13:10:42;11.50;47.80
7384;DHT22;3733;47.994;8.820;2024-02-26T13:13:08;11.60;48.00
7384;DHT22;3733;47.994;8.820;2024-02-26T13:15:34;11.60;47.70
7384;DHT22;3733;47.994;8.820;2024-02-26T13:18:13;11.60;47.30
7384;DHT22;3733;47.994;8.820;2024-02-26T13:20:39;11.60;47.50
7384;DHT22;3733;47.994;8.820;2024-02-26T13:23:11;11.60;47.80
7384;DHT22;3733;47.994;8.820;2024-02-26T13:25:37;11.60;47.70
7384;DHT22;3733;47.994;8.820;2024-02-26T13:28:15;11.70;48.00
7384;DHT22;3733;47.994;8.820;2024-02-26T13:30:51;11.80;48.30
7384;DHT22;3733;47.994;8.820;2024-02-26T13:33:19;11.90;48.10
7384;DHT22;3733;47.994;8.820;2024-02-26T13:35:44;12.00;47.90
7384;DHT22;3733;47.994;8.820;2024-02-26T13:38:10;12.10;46.80
7384;DHT22;3733;47.994;8.820;2024-02-26T13:40:37;12.20;46.50
7384;DHT22;3733;47.994;8.820;2024-02-26T13:43:03;12.30;46.50
7384;DHT22;3733;47.994;8.820;2024-02-26T13:45:29;12.50;46.60
7384;DHT22;3733;47.994;8.820;2024-02-26T13:48:01;12.70;46.00
7384;DHT22;3733;47.994;8.820;2024-02-26T13:50:28;12.90;44.80
7384;DHT22;3733;47.994;8.820;2024-02-26T13:52:54;12.90;43.70
7384;DHT22;3733;47.994;8.820;2024-02-26T13:55:27;12.70;43.60
7384;DHT22;3733;47.994;8.820;2024-02-26T13:57:57;12.50;43.10
7384;DHT22;3733;47.994;8.820;2024-02-26T14:00:23;12.40;43.60
7384;DHT22;3733;47.994;8.820;2024-02-26T14:02:50;12.40;44.40
7384;DHT22;3733;47.994;8.820;2024-02-26T14:05:16;12.50;44.70
7384;DHT22;3733;47.994;8.820;2024-02-26T14:07:42;12.50;44.30
7384;DHT22;3733;47.994;8.820;2024-02-26T14:10:09;12.60;44.30
7384;DHT22;3733;47.994;8.820;2024-02-26T14:12:37;12.70;44.20
7384;DHT22;3733;47.994;8.820;2024-02-26T14:15:03;12.70;44.00
7384;DHT22;3733;47.994;8.820;2024-02-26T14:17:30;12.70;43.90
7384;DHT22;3733;47.994;8.820;2024-02-26T14:19:56;12.70;43.30
7384;DHT22;3733;47.994;8.820;2024-02-26T14:22:22;12.60;43.30
7384;DHT22;3733;47.994;8.820;2024-02-26T14:24:47;12.40;43.50
7384;DHT22;3733;47.994;8.820;2024-02-26T14:27:13;12.30;43.60
7384;DHT22;3733;47.994;8.820;2024-02-26T14:29:45;12.20;44.70
7384;DHT22;3733;47.994;8.820;2024-02-26T14:32:11;12.10;44.70
7384;DHT22;3733;47.994;8.820;2024-02-26T14:34:37;12.00;45.00
7384;DHT22;3733;47.994;8.820;2024-02-26T14:37:02;11.90;45.00
7384;DHT22;3733;47.994;8.820;2024-02-26T14:39:28;11.80;45.40
7384;DHT22;3733;47.994;8.820;2024-02-26T14:41:55;11.70;45.50
7384;DHT22;3733;47.994;8.820;2024-02-26T14:44:20;11.70;45.60
7384;DHT22;3733;47.994;8.820;2024-02-26T14:46:46;11.60;45.90
7384;DHT22;3733;47.994;8.820;2024-02-26T14:49:12;11.60;46.70
7384;DHT22;3733;47.994;8.820;2024-02-26T14:51:38;11.50;47.50
7384;DHT22;3733;47.994;8.820;2024-02-26T14:54:04;11.50;47.00
7384;DHT22;3733;47.994;8.820;2024-02-26T14:56:29;11.40;47.00
7384;DHT22;3733;47.994;8.820;2024-02-26T14:58:55;11.40;47.30
7384;DHT22;3733;47.994;8.820;2024-02-26T15:01:20;11.30;47.10
7384;DHT22;3733;47.994;8.820;2024-02-26T15:03:46;11.30;47.20
7384;DHT22;3733;47.994;8.820;2024-02-26T15:06:13;11.30;47.20
7384;DHT22;3733;47.994;8.820;2024-02-26T15:08:38;11.20;46.90
7384;DHT22;3733;47.994;8.820;2024-02-26T15:11:04;11.20;47.30
7384;DHT22;3733;47.994;8.820;2024-02-26T15:13:30;11.10;47.60
7384;DHT22;3733;47.994;8.820;2024-02-26T15:15:56;11.10;48.30
7384;DHT22;3733;47.994;8.820;2024-02-26T15:18:21;11.10;48.00
7384;DHT22;3733;47.994;8.820;2024-02-26T15:20:47;11.00;47.70
7384;DHT22;3733;47.994;8.820;2024-02-26T15:23:13;10.90;47.70
7384;DHT22;3733;47.994;8.820;2024-02-26T15:25:39;10.90;48.20
7384;DHT22;3733;47.994;8.820;2024-02-26T15:28:07;10.80;48.00
7384;DHT22;3733;47.994;8.820;2024-02-26T15:30:32;10.80;48.10
7384;DHT22;3733;47.994;8.820;2024-02-26T15:32:59;10.70;48.00
7384;DHT22;3733;47.994;8.820;2024-02-26T15:35:25;10.70;48.10
7384;DHT22;3733;47.994;8.820;2024-02-26T15:37:51;10.60;48.20
7384;DHT22;3733;47.994;8.820;2024-02-26T15:40:17;10.60;48.10
7384;DHT22;3733;47.994;8.820;2024-02-26T15:42:42;10.50;48.20
7384;DHT22;3733;47.994;8.820;2024-02-26T15:45:08;10.50;48.60
7384;DHT22;3733;47.994;8.820;2024-02-26T15:47:34;10.50;48.80
7384;DHT22;3733;47.994;8.820;2024-02-26T15:50:01;10.40;48.90
7384;DHT22;3733;47.994;8.820;2024-02-26T15:52:27;10.40;49.10
7384;DHT22;3733;47.994;8.820;2024-02-26T15:54:54;10.40;49.30
7384;DHT22;3733;47.994;8.820;2024-02-26T15:57:19;10.40;49.80
7384;DHT22;3733;47.994;8.820;2024-02-26T15:59:46;10.30;49.70
7384;DHT22;3733;47.994;8.820;2024-02-26T16:02:13;10.30;49.90
7384;DHT22;3733;47.994;8.820;2024-02-26T16:04:40;10.20;50.10
7384;DHT22;3733;47.994;8.820;2024-02-26T16:07:06;10.20;50.30
7384;DHT22;3733;47.994;8.820;2024-02-26T16:09:35;10.20;50.40
7384;DHT22;3733;47.994;8.820;2024-02-26T16:12:09;10.10;50.60
7384;DHT22;3733;47.994;8.820;2024-02-26T16:17:26;10.00;51.20